PWSweather.com
Personal Weather Stations
Station Observations
79674
AfterstegDE 79674

AfterstegDE 79674

Lat: 47.84344, Lon: 7.92844

Elevation: 809

Station Type: Davis Vantage 2 Aktive

Latest ConditionsUpdated 5:47:10 PM GMT+01:01 Wednesday, Jul 1, 2015
Currently Today's Max Today's Min Today's Average
Temperature 87.1°F30.6°C 87.6°F30.9°C 60.4°F15.8°C 75.3°F24.1°C
Dew Point 57.6°F14.2°C 61.3°F16.3°C 51.4°F10.8°C 55.6°F13.1°C
Winds 0.9 mph NW1.4 kmh NW 4.0 mph S6.4 kmh S - 0.9 mph 1.4 kmh
Wind Gusts 2.0 mph3.2 kmh 6.9 mph11.1 kmh - -
Humidity 37% 76% 31% 53%
Pressure 30.00 in1015.9 mb 30.06 in1017.9 mb 30.00 in1015.9 mb -
Hour Temp Dew Point Humidity Winds Wind Gusts Pressure Precip Precip Rate Daily Precip Total
05:47 PM 87.1°F30.6°C 57.6°F14.2°C 37% 0.9 mph NW1.4 kmh NW 2.0 mph3.2 kmh 30.00 in1015.9 mb - 0.00 in0.0 mm 0.00 in0.0 mm
05:42 PM 86.9°F30.5°C 59.0°F15.0°C 39% 2.0 mph N3.2 kmh N -- 30.00 in1015.9 mb - 0.00 in0.0 mm 0.00 in0.0 mm
05:37 PM 86.5°F30.3°C 58.6°F14.8°C 39% 2.0 mph NW3.2 kmh NW 4.0 mph6.4 kmh 30.00 in1015.9 mb - 0.00 in0.0 mm 0.00 in0.0 mm
05:32 PM 86.5°F30.3°C 54.0°F12.2°C 33% 0.9 mph SW1.4 kmh SW 0.9 mph1.4 kmh 30.00 in1015.9 mb - 0.00 in0.0 mm 0.00 in0.0 mm
05:27 PM 86.5°F30.3°C 54.9°F12.7°C 34% 0.9 mph SW1.4 kmh SW -- 30.00 in1015.9 mb - 0.00 in0.0 mm 0.00 in0.0 mm
05:22 PM 86.5°F30.3°C 54.0°F12.2°C 33% 2.0 mph S3.2 kmh S 2.0 mph3.2 kmh 30.00 in1015.9 mb - 0.00 in0.0 mm 0.00 in0.0 mm
05:17 PM 86.5°F30.3°C 54.0°F12.2°C 33% 2.0 mph S3.2 kmh S 2.0 mph3.2 kmh 30.00 in1015.9 mb - 0.00 in0.0 mm 0.00 in0.0 mm
05:12 PM 87.1°F30.6°C 55.2°F12.9°C 34% 2.0 mph S3.2 kmh S 2.0 mph3.2 kmh 30.00 in1015.9 mb - 0.00 in0.0 mm 0.00 in0.0 mm
05:07 PM 87.1°F30.6°C 53.6°F12.0°C 32% 0.9 mph SSW1.4 kmh SSW 0.9 mph1.4 kmh 30.00 in1015.9 mb - 0.00 in0.0 mm 0.00 in0.0 mm
04:57 PM 87.3°F30.7°C 54.7°F12.6°C 33% 0.9 mph SSE1.4 kmh SSE 2.9 mph4.7 kmh 30.01 in1016.3 mb - 0.00 in0.0 mm 0.00 in0.0 mm
04:52 PM 87.3°F30.7°C 52.9°F11.6°C 31% 0.9 mph S1.4 kmh S 2.0 mph3.2 kmh 30.01 in1016.3 mb - 0.00 in0.0 mm 0.00 in0.0 mm
04:47 PM 87.4°F30.8°C 54.9°F12.7°C 33% 2.0 mph S3.2 kmh S -- 30.01 in1016.3 mb - 0.00 in0.0 mm 0.00 in0.0 mm
04:42 PM 87.4°F30.8°C 54.9°F12.7°C 33% 2.0 mph SW3.2 kmh SW 0.9 mph1.4 kmh 30.01 in1016.3 mb - 0.00 in0.0 mm 0.00 in0.0 mm
04:37 PM 87.6°F30.9°C 55.0°F12.8°C 33% 0.9 mph S1.4 kmh S 0.9 mph1.4 kmh 30.01 in1016.3 mb - 0.00 in0.0 mm 0.00 in0.0 mm
04:32 PM 87.6°F30.9°C 56.7°F13.7°C 35% 0.9 mph SW1.4 kmh SW 2.9 mph4.7 kmh 30.01 in1016.3 mb - 0.00 in0.0 mm 0.00 in0.0 mm
04:27 PM 87.4°F30.8°C 54.0°F12.2°C 32% 0.9 mph SW1.4 kmh SW -- 30.01 in1016.3 mb - 0.00 in0.0 mm 0.00 in0.0 mm
04:22 PM 87.3°F30.7°C 54.7°F12.6°C 33% 2.0 mph S3.2 kmh S 2.0 mph3.2 kmh 30.01 in1016.3 mb - 0.00 in0.0 mm 0.00 in0.0 mm
04:17 PM 87.1°F30.6°C 53.6°F12.0°C 32% 2.9 mph S4.7 kmh S 2.0 mph3.2 kmh 30.01 in1016.3 mb - 0.00 in0.0 mm 0.00 in0.0 mm
04:12 PM 87.3°F30.7°C 56.3°F13.5°C 35% 2.0 mph S3.2 kmh S 2.0 mph3.2 kmh 30.01 in1016.3 mb - 0.00 in0.0 mm 0.00 in0.0 mm
04:07 PM 87.4°F30.8°C 56.5°F13.6°C 35% 2.0 mph SSE3.2 kmh SSE 4.0 mph6.4 kmh 30.01 in1016.3 mb - 0.00 in0.0 mm 0.00 in0.0 mm
04:02 PM 87.1°F30.6°C 55.2°F12.9°C 34% 2.9 mph SW4.7 kmh SW 2.9 mph4.7 kmh 30.01 in1016.3 mb - 0.00 in0.0 mm 0.00 in0.0 mm
03:57 PM 87.3°F30.7°C 56.3°F13.5°C 35% 2.0 mph SSW3.2 kmh SSW 2.9 mph4.7 kmh 30.01 in1016.3 mb - 0.00 in0.0 mm 0.00 in0.0 mm
03:52 PM 87.3°F30.7°C 56.3°F13.5°C 35% 2.0 mph S3.2 kmh S 2.0 mph3.2 kmh 30.01 in1016.3 mb - 0.00 in0.0 mm 0.00 in0.0 mm
03:47 PM 87.4°F30.8°C 55.6°F13.1°C 34% 2.0 mph S3.2 kmh S 2.9 mph4.7 kmh 30.01 in1016.3 mb - 0.00 in0.0 mm 0.00 in0.0 mm
03:42 PM 87.4°F30.8°C 55.6°F13.1°C 34% 2.0 mph SW3.2 kmh SW 0.9 mph1.4 kmh 30.01 in1016.3 mb - 0.00 in0.0 mm 0.00 in0.0 mm
03:37 PM 87.4°F30.8°C 57.9°F14.4°C 37% 0.9 mph SSE1.4 kmh SSE 0.9 mph1.4 kmh 30.01 in1016.3 mb - 0.00 in0.0 mm 0.00 in0.0 mm
03:27 PM 86.9°F30.5°C 57.6°F14.2°C 37% 0.9 mph SSE1.4 kmh SSE 2.9 mph4.7 kmh 30.01 in1016.3 mb - 0.00 in0.0 mm 0.00 in0.0 mm
03:22 PM 86.7°F30.4°C 57.4°F14.1°C 37% 2.0 mph S3.2 kmh S -- 30.01 in1016.3 mb - 0.00 in0.0 mm 0.00 in0.0 mm
03:17 PM 86.5°F30.3°C 58.6°F14.8°C 39% 2.0 mph SW3.2 kmh SW 2.0 mph3.2 kmh 30.01 in1016.3 mb - 0.00 in0.0 mm 0.00 in0.0 mm
03:12 PM 86.7°F30.4°C 57.4°F14.1°C 37% 2.0 mph SSW3.2 kmh SSW 4.9 mph7.9 kmh 30.01 in1016.3 mb - 0.00 in0.0 mm 0.00 in0.0 mm
03:07 PM 87.1°F30.6°C 56.8°F13.8°C 36% 2.0 mph SW3.2 kmh SW 4.0 mph6.4 kmh 30.02 in1016.6 mb - 0.00 in0.0 mm 0.00 in0.0 mm
03:02 PM 86.9°F30.5°C 56.7°F13.7°C 36% 2.0 mph SSW3.2 kmh SSW 2.0 mph3.2 kmh 30.02 in1016.6 mb - 0.00 in0.0 mm 0.00 in0.0 mm
02:57 PM 87.3°F30.7°C 57.7°F14.3°C 37% 2.0 mph SW3.2 kmh SW 2.9 mph4.7 kmh 30.02 in1016.6 mb - 0.00 in0.0 mm 0.00 in0.0 mm
02:52 PM 86.9°F30.5°C 58.3°F14.6°C 38% 2.0 mph SSW3.2 kmh SSW 2.0 mph3.2 kmh 30.01 in1016.3 mb - 0.00 in0.0 mm 0.00 in0.0 mm
02:47 PM 86.5°F30.3°C 58.6°F14.8°C 39% 2.0 mph SSW3.2 kmh SSW -- 30.01 in1016.3 mb - 0.00 in0.0 mm 0.00 in0.0 mm
02:42 PM 86.7°F30.4°C 57.4°F14.1°C 37% 2.0 mph SW3.2 kmh SW 0.9 mph1.4 kmh 30.01 in1016.3 mb - 0.00 in0.0 mm 0.00 in0.0 mm
02:37 PM 87.1°F30.6°C 59.2°F15.1°C 39% 2.0 mph S3.2 kmh S 4.0 mph6.4 kmh 30.01 in1016.3 mb - 0.00 in0.0 mm 0.00 in0.0 mm
02:32 PM 87.1°F30.6°C 58.5°F14.7°C 38% 2.0 mph NW3.2 kmh NW -- 30.01 in1016.3 mb - 0.00 in0.0 mm 0.00 in0.0 mm
02:27 PM 87.4°F30.8°C 58.6°F14.8°C 38% 2.0 mph SW3.2 kmh SW -- 30.01 in1016.3 mb - 0.00 in0.0 mm 0.00 in0.0 mm
02:22 PM 87.4°F30.8°C 60.8°F16.0°C 41% 2.0 mph WSW3.2 kmh WSW 2.0 mph3.2 kmh 30.01 in1016.3 mb - 0.00 in0.0 mm 0.00 in0.0 mm
02:17 PM 87.3°F30.7°C 59.4°F15.2°C 39% 0.9 mph SW1.4 kmh SW 0.9 mph1.4 kmh 30.01 in1016.3 mb - 0.00 in0.0 mm 0.00 in0.0 mm
02:12 PM 87.4°F30.8°C 59.4°F15.2°C 39% 0.9 mph S1.4 kmh S -- 30.01 in1016.3 mb - 0.00 in0.0 mm 0.00 in0.0 mm
02:07 PM 87.3°F30.7°C 58.6°F14.8°C 38% 2.0 mph SSE3.2 kmh SSE -- 30.01 in1016.3 mb - 0.00 in0.0 mm 0.00 in0.0 mm
02:02 PM 87.1°F30.6°C 57.6°F14.2°C 37% 2.0 mph NW3.2 kmh NW -- 30.02 in1016.6 mb - 0.00 in0.0 mm 0.00 in0.0 mm
01:57 PM 86.7°F30.4°C 58.8°F14.9°C 39% 2.0 mph WSW3.2 kmh WSW 4.0 mph6.4 kmh 30.02 in1016.6 mb - 0.00 in0.0 mm 0.00 in0.0 mm
01:52 PM 86.5°F30.3°C 60.1°F15.6°C 41% 2.9 mph S4.7 kmh S 2.9 mph4.7 kmh 30.01 in1016.3 mb - 0.00 in0.0 mm 0.00 in0.0 mm
01:47 PM 86.5°F30.3°C 58.6°F14.8°C 39% 2.9 mph S4.7 kmh S 2.0 mph3.2 kmh 30.02 in1016.6 mb - 0.00 in0.0 mm 0.00 in0.0 mm
01:42 PM 86.5°F30.3°C 58.6°F14.8°C 39% 2.0 mph SW3.2 kmh SW 2.0 mph3.2 kmh 30.02 in1016.6 mb - 0.00 in0.0 mm 0.00 in0.0 mm
01:37 PM 86.4°F30.2°C 60.6°F15.9°C 42% 2.9 mph SE4.7 kmh SE 2.0 mph3.2 kmh 30.02 in1016.6 mb - 0.00 in0.0 mm 0.00 in0.0 mm
01:32 PM 86.2°F30.1°C 59.0°F15.0°C 40% 2.0 mph NW3.2 kmh NW 2.0 mph3.2 kmh 30.01 in1016.3 mb - 0.00 in0.0 mm 0.00 in0.0 mm
01:27 PM 85.8°F29.9°C 59.4°F15.2°C 41% 2.9 mph SSW4.7 kmh SSW 4.0 mph6.4 kmh 30.02 in1016.6 mb - 0.00 in0.0 mm 0.00 in0.0 mm
01:22 PM 85.6°F29.8°C 59.2°F15.1°C 41% 2.9 mph WSW4.7 kmh WSW -- 30.02 in1016.6 mb - 0.00 in0.0 mm 0.00 in0.0 mm
01:17 PM 86.2°F30.1°C 59.7°F15.4°C 41% 2.9 mph SW4.7 kmh SW 2.9 mph4.7 kmh 30.02 in1016.6 mb - 0.00 in0.0 mm 0.00 in0.0 mm
01:12 PM 86.4°F30.2°C 60.6°F15.9°C 42% 2.0 mph SSW3.2 kmh SSW 0.9 mph1.4 kmh 30.02 in1016.6 mb - 0.00 in0.0 mm 0.00 in0.0 mm
01:07 PM 86.2°F30.1°C 60.4°F15.8°C 42% 2.0 mph SW3.2 kmh SW 2.9 mph4.7 kmh 30.02 in1016.6 mb - 0.00 in0.0 mm 0.00 in0.0 mm
12:57 PM 85.8°F29.9°C 61.3°F16.3°C 44% 2.0 mph SW3.2 kmh SW 4.0 mph6.4 kmh 30.02 in1016.6 mb - 0.00 in0.0 mm 0.00 in0.0 mm
12:52 PM 85.6°F29.8°C 60.6°F15.9°C 43% 2.0 mph SW3.2 kmh SW -- 30.02 in1016.6 mb - 0.00 in0.0 mm 0.00 in0.0 mm
12:42 PM 85.8°F29.9°C 60.8°F16.0°C 43% 2.9 mph SW4.7 kmh SW 2.9 mph4.7 kmh 30.03 in1016.9 mb - 0.00 in0.0 mm 0.00 in0.0 mm
12:32 PM 86.2°F30.1°C 58.3°F14.6°C 39% 2.9 mph WSW4.7 kmh WSW 2.9 mph4.7 kmh 30.03 in1016.9 mb - 0.00 in0.0 mm 0.00 in0.0 mm
12:27 PM 86.2°F30.1°C 59.7°F15.4°C 41% 2.0 mph SW3.2 kmh SW 4.0 mph6.4 kmh 30.03 in1016.9 mb - 0.00 in0.0 mm 0.00 in0.0 mm
12:22 PM 86.0°F30.0°C 58.1°F14.5°C 39% 2.0 mph W3.2 kmh W 4.0 mph6.4 kmh 30.03 in1016.9 mb - 0.00 in0.0 mm 0.00 in0.0 mm
12:17 PM 85.6°F29.8°C 59.2°F15.1°C 41% 2.9 mph S4.7 kmh S 2.9 mph4.7 kmh 30.03 in1016.9 mb - 0.00 in0.0 mm 0.00 in0.0 mm
12:12 PM 85.6°F29.8°C 59.9°F15.5°C 42% 2.9 mph S4.7 kmh S 2.0 mph3.2 kmh 30.03 in1016.9 mb - 0.00 in0.0 mm 0.00 in0.0 mm
12:07 PM 85.3°F29.6°C 59.5°F15.3°C 42% 2.9 mph SE4.7 kmh SE 2.9 mph4.7 kmh 30.03 in1016.9 mb - 0.00 in0.0 mm 0.00 in0.0 mm
12:02 PM 85.1°F29.5°C 60.1°F15.6°C 43% 2.0 mph S3.2 kmh S 4.0 mph6.4 kmh 30.03 in1016.9 mb - 0.00 in0.0 mm 0.00 in0.0 mm
11:57 AM 84.9°F29.4°C 59.2°F15.1°C 42% 2.9 mph SE4.7 kmh SE 2.9 mph4.7 kmh 30.03 in1016.9 mb - 0.00 in0.0 mm 0.00 in0.0 mm
11:52 AM 85.1°F29.5°C 59.4°F15.2°C 42% 4.0 mph S6.4 kmh S -- 30.03 in1016.9 mb - 0.00 in0.0 mm 0.00 in0.0 mm
11:47 AM 84.7°F29.3°C 59.7°F15.4°C 43% 2.9 mph SSE4.7 kmh SSE 6.0 mph9.7 kmh 30.03 in1016.9 mb - 0.00 in0.0 mm 0.00 in0.0 mm
11:42 AM 84.6°F29.2°C 56.8°F13.8°C 39% 2.9 mph SSE4.7 kmh SSE 6.9 mph11.1 kmh 30.04 in1017.3 mb - 0.00 in0.0 mm 0.00 in0.0 mm
11:37 AM 84.6°F29.2°C 59.0°F15.0°C 42% 2.9 mph S4.7 kmh S 4.0 mph6.4 kmh 30.04 in1017.3 mb - 0.00 in0.0 mm 0.00 in0.0 mm
11:32 AM 84.6°F29.2°C 57.6°F14.2°C 40% 2.0 mph S3.2 kmh S 2.9 mph4.7 kmh 30.04 in1017.3 mb - 0.00 in0.0 mm 0.00 in0.0 mm
11:27 AM 84.7°F29.3°C 55.6°F13.1°C 37% 2.0 mph S3.2 kmh S 2.0 mph3.2 kmh 30.04 in1017.3 mb - 0.00 in0.0 mm 0.00 in0.0 mm
11:22 AM 84.6°F29.2°C 58.3°F14.6°C 41% 2.0 mph E3.2 kmh E 0.9 mph1.4 kmh 30.04 in1017.3 mb - 0.00 in0.0 mm 0.00 in0.0 mm
11:17 AM 84.4°F29.1°C 57.4°F14.1°C 40% 2.0 mph ESE3.2 kmh ESE -- 30.04 in1017.3 mb - 0.00 in0.0 mm 0.00 in0.0 mm
11:12 AM 84.0°F28.9°C 55.8°F13.2°C 38% 2.0 mph SE3.2 kmh SE 2.0 mph3.2 kmh 30.04 in1017.3 mb - 0.00 in0.0 mm 0.00 in0.0 mm
11:07 AM 84.0°F28.9°C 53.4°F11.9°C 35% 0.9 mph ESE1.4 kmh ESE -- 30.04 in1017.3 mb - 0.00 in0.0 mm 0.00 in0.0 mm
11:02 AM 84.0°F28.9°C 53.4°F11.9°C 35% 0.9 mph SE1.4 kmh SE -- 30.04 in1017.3 mb - 0.00 in0.0 mm 0.00 in0.0 mm
10:57 AM 83.7°F28.7°C 51.4°F10.8°C 33% 2.0 mph SE3.2 kmh SE -- 30.04 in1017.3 mb - 0.00 in0.0 mm 0.00 in0.0 mm
10:52 AM 83.7°F28.7°C 53.1°F11.7°C 35% 0.9 mph S1.4 kmh S -- 30.04 in1017.3 mb - 0.00 in0.0 mm 0.00 in0.0 mm
10:47 AM 83.5°F28.6°C 55.2°F12.9°C 38% 0.9 mph S1.4 kmh S 2.9 mph4.7 kmh 30.04 in1017.3 mb - 0.00 in0.0 mm 0.00 in0.0 mm
10:42 AM 82.9°F28.3°C 55.4°F13.0°C 39% 2.0 mph S3.2 kmh S 0.9 mph1.4 kmh 30.04 in1017.3 mb - 0.00 in0.0 mm 0.00 in0.0 mm
10:37 AM 82.9°F28.3°C 54.0°F12.2°C 37% 2.0 mph S3.2 kmh S 0.9 mph1.4 kmh 30.04 in1017.3 mb - 0.00 in0.0 mm 0.00 in0.0 mm
10:32 AM 82.9°F28.3°C 54.0°F12.2°C 37% 0.9 mph S1.4 kmh S 2.9 mph4.7 kmh 30.04 in1017.3 mb - 0.00 in0.0 mm 0.00 in0.0 mm
10:27 AM 82.8°F28.2°C 54.5°F12.5°C 38% 0.9 mph SSE1.4 kmh SSE 2.9 mph4.7 kmh 30.04 in1017.3 mb - 0.00 in0.0 mm 0.00 in0.0 mm
10:22 AM 82.6°F28.1°C 53.6°F12.0°C 37% 2.0 mph S3.2 kmh S 2.0 mph3.2 kmh 30.04 in1017.3 mb - 0.00 in0.0 mm 0.00 in0.0 mm
10:17 AM 82.0°F27.8°C 55.4°F13.0°C 40% 2.0 mph SE3.2 kmh SE -- 30.04 in1017.3 mb - 0.00 in0.0 mm 0.00 in0.0 mm
10:12 AM 82.0°F27.8°C 56.7°F13.7°C 42% 0.9 mph S1.4 kmh S 0.9 mph1.4 kmh 30.04 in1017.3 mb - 0.00 in0.0 mm 0.00 in0.0 mm
10:07 AM 82.0°F27.8°C 55.4°F13.0°C 40% 0.9 mph SSE1.4 kmh SSE 0.9 mph1.4 kmh 30.04 in1017.3 mb - 0.00 in0.0 mm 0.00 in0.0 mm
10:02 AM 82.0°F27.8°C 56.7°F13.7°C 42% 0.9 mph S1.4 kmh S 0.9 mph1.4 kmh 30.04 in1017.3 mb - 0.00 in0.0 mm 0.00 in0.0 mm
09:57 AM 82.0°F27.8°C 55.9°F13.3°C 41% 0.9 mph SE1.4 kmh SE 0.9 mph1.4 kmh 30.04 in1017.3 mb - 0.00 in0.0 mm 0.00 in0.0 mm
09:52 AM 81.7°F27.6°C 54.3°F12.4°C 39% 0.9 mph S1.4 kmh S 2.0 mph3.2 kmh 30.04 in1017.3 mb - 0.00 in0.0 mm 0.00 in0.0 mm
09:47 AM 81.3°F27.4°C 56.1°F13.4°C 42% 0.9 mph S1.4 kmh S 0.9 mph1.4 kmh 30.04 in1017.3 mb - 0.00 in0.0 mm 0.00 in0.0 mm
09:42 AM 81.3°F27.4°C 56.1°F13.4°C 42% 0.9 mph S1.4 kmh S 0.9 mph1.4 kmh 30.04 in1017.3 mb - 0.00 in0.0 mm 0.00 in0.0 mm
09:37 AM 81.0°F27.2°C 54.3°F12.4°C 40% 0.9 mph S1.4 kmh S 2.0 mph3.2 kmh 30.04 in1017.3 mb - 0.00 in0.0 mm 0.00 in0.0 mm
09:32 AM 80.8°F27.1°C 56.1°F13.4°C 43% 0.9 mph S1.4 kmh S 0.9 mph1.4 kmh 30.04 in1017.3 mb - 0.00 in0.0 mm 0.00 in0.0 mm
09:27 AM 80.6°F27.0°C 57.9°F14.4°C 46% 0.9 mph S1.4 kmh S -- 30.04 in1017.3 mb - 0.00 in0.0 mm 0.00 in0.0 mm
09:22 AM 80.1°F26.7°C 56.1°F13.4°C 44% Calm Calm 0.9 mph1.4 kmh 30.04 in1017.3 mb - 0.00 in0.0 mm 0.00 in0.0 mm
09:17 AM 79.5°F26.4°C 55.8°F13.2°C 44% Calm Calm 0.9 mph1.4 kmh 30.05 in1017.6 mb - 0.00 in0.0 mm 0.00 in0.0 mm
09:12 AM 79.0°F26.1°C 55.8°F13.2°C 45% 0.9 mph S1.4 kmh S -- 30.04 in1017.3 mb - 0.00 in0.0 mm 0.00 in0.0 mm
09:07 AM 78.8°F26.0°C 56.3°F13.5°C 46% 0.9 mph S1.4 kmh S 0.9 mph1.4 kmh 30.05 in1017.6 mb - 0.00 in0.0 mm 0.00 in0.0 mm
09:02 AM 79.0°F26.1°C 57.6°F14.2°C 48% 0.9 mph S1.4 kmh S -- 30.04 in1017.3 mb - 0.00 in0.0 mm 0.00 in0.0 mm
08:57 AM 78.6°F25.9°C 58.5°F14.7°C 50% Calm Calm 0.9 mph1.4 kmh 30.05 in1017.6 mb - 0.00 in0.0 mm 0.00 in0.0 mm
08:52 AM 78.1°F25.6°C 56.8°F13.8°C 48% Calm Calm -- 30.05 in1017.6 mb - 0.00 in0.0 mm 0.00 in0.0 mm
08:47 AM 77.9°F25.5°C 57.7°F14.3°C 50% Calm Calm -- 30.05 in1017.6 mb - 0.00 in0.0 mm 0.00 in0.0 mm
08:42 AM 77.5°F25.3°C 58.5°F14.7°C 52% Calm Calm -- 30.05 in1017.6 mb - 0.00 in0.0 mm 0.00 in0.0 mm
08:37 AM 76.6°F24.8°C 58.3°F14.6°C 53% Calm Calm -- 30.05 in1017.6 mb - 0.00 in0.0 mm 0.00 in0.0 mm
08:32 AM 76.1°F24.5°C 58.8°F14.9°C 55% Calm Calm -- 30.05 in1017.6 mb - 0.00 in0.0 mm 0.00 in0.0 mm
08:27 AM 75.6°F24.2°C 58.8°F14.9°C 56% Calm Calm -- 30.05 in1017.6 mb - 0.00 in0.0 mm 0.00 in0.0 mm
08:22 AM 75.0°F23.9°C 58.8°F14.9°C 57% Calm Calm -- 30.05 in1017.6 mb - 0.00 in0.0 mm 0.00 in0.0 mm
08:17 AM 74.7°F23.7°C 58.8°F14.9°C 58% Calm Calm -- 30.05 in1017.6 mb - 0.00 in0.0 mm 0.00 in0.0 mm
08:12 AM 74.1°F23.4°C 58.5°F14.7°C 58% Calm Calm -- 30.05 in1017.6 mb - 0.00 in0.0 mm 0.00 in0.0 mm
08:07 AM 73.6°F23.1°C 57.9°F14.4°C 58% Calm Calm -- 30.05 in1017.6 mb - 0.00 in0.0 mm 0.00 in0.0 mm
08:02 AM 73.0°F22.8°C 57.4°F14.1°C 58% Calm Calm -- 30.05 in1017.6 mb - 0.00 in0.0 mm 0.00 in0.0 mm
07:57 AM 72.1°F22.3°C 57.9°F14.4°C 61% Calm Calm 0.9 mph1.4 kmh 30.05 in1017.6 mb - 0.00 in0.0 mm 0.00 in0.0 mm
07:52 AM 71.2°F21.8°C 57.6°F14.2°C 62% Calm Calm -- 30.05 in1017.6 mb - 0.00 in0.0 mm 0.00 in0.0 mm
07:47 AM 70.5°F21.4°C 57.4°F14.1°C 63% Calm Calm -- 30.05 in1017.6 mb - 0.00 in0.0 mm 0.00 in0.0 mm
07:42 AM 69.6°F20.9°C 57.4°F14.1°C 65% Calm Calm -- 30.05 in1017.6 mb - 0.00 in0.0 mm 0.00 in0.0 mm
07:37 AM 68.5°F20.3°C 57.2°F14.0°C 67% Calm Calm -- 30.05 in1017.6 mb - 0.00 in0.0 mm 0.00 in0.0 mm
07:32 AM 67.5°F19.7°C 56.5°F13.6°C 68% Calm Calm -- 30.05 in1017.6 mb - 0.00 in0.0 mm 0.00 in0.0 mm
07:27 AM 66.4°F19.1°C 55.9°F13.3°C 69% Calm Calm -- 30.05 in1017.6 mb - 0.00 in0.0 mm 0.00 in0.0 mm
07:22 AM 65.5°F18.6°C 55.4°F13.0°C 70% Calm Calm -- 30.05 in1017.6 mb - 0.00 in0.0 mm 0.00 in0.0 mm
07:17 AM 64.4°F18.0°C 54.9°F12.7°C 71% Calm Calm -- 30.05 in1017.6 mb - 0.00 in0.0 mm 0.00 in0.0 mm
07:12 AM 63.7°F17.6°C 54.5°F12.5°C 72% Calm Calm -- 30.05 in1017.6 mb - 0.00 in0.0 mm 0.00 in0.0 mm
07:07 AM 63.1°F17.3°C 54.3°F12.4°C 73% Calm Calm -- 30.05 in1017.6 mb - 0.00 in0.0 mm 0.00 in0.0 mm
07:02 AM 62.8°F17.1°C 53.6°F12.0°C 72% Calm Calm -- 30.05 in1017.6 mb - 0.00 in0.0 mm 0.00 in0.0 mm
06:57 AM 62.4°F16.9°C 54.0°F12.2°C 74% Calm Calm -- 30.05 in1017.6 mb - 0.00 in0.0 mm 0.00 in0.0 mm
06:52 AM 62.2°F16.8°C 54.1°F12.3°C 75% Calm Calm -- 30.06 in1017.9 mb - 0.00 in0.0 mm 0.00 in0.0 mm
06:47 AM 62.1°F16.7°C 54.0°F12.2°C 75% Calm Calm -- 30.06 in1017.9 mb - 0.00 in0.0 mm 0.00 in0.0 mm
06:42 AM 61.9°F16.6°C 53.8°F12.1°C 75% Calm Calm -- 30.05 in1017.6 mb - 0.00 in0.0 mm 0.00 in0.0 mm
06:37 AM 61.3°F16.3°C 53.1°F11.7°C 74% Calm Calm -- 30.06 in1017.9 mb - 0.00 in0.0 mm 0.00 in0.0 mm
06:32 AM 61.2°F16.2°C 53.2°F11.8°C 75% Calm Calm -- 30.06 in1017.9 mb - 0.00 in0.0 mm 0.00 in0.0 mm
06:27 AM 61.0°F16.1°C 53.4°F11.9°C 76% Calm Calm -- 30.06 in1017.9 mb - 0.00 in0.0 mm 0.00 in0.0 mm
06:22 AM 61.0°F16.1°C 53.4°F11.9°C 76% Calm Calm -- 30.05 in1017.6 mb - 0.00 in0.0 mm 0.00 in0.0 mm
06:17 AM 61.0°F16.1°C 53.4°F11.9°C 76% Calm Calm -- 30.05 in1017.6 mb - 0.00 in0.0 mm 0.00 in0.0 mm
06:12 AM 60.8°F16.0°C 52.9°F11.6°C 75% Calm Calm -- 30.05 in1017.6 mb - 0.00 in0.0 mm 0.00 in0.0 mm
06:07 AM 60.6°F15.9°C 52.7°F11.5°C 75% Calm Calm -- 30.05 in1017.6 mb - 0.00 in0.0 mm 0.00 in0.0 mm
06:02 AM 60.6°F15.9°C 52.7°F11.5°C 75% Calm Calm -- 30.05 in1017.6 mb - 0.00 in0.0 mm 0.00 in0.0 mm
05:57 AM 60.6°F15.9°C 52.7°F11.5°C 75% Calm Calm -- 30.06 in1017.9 mb - 0.00 in0.0 mm 0.00 in0.0 mm
05:52 AM 60.6°F15.9°C 52.7°F11.5°C 75% Calm Calm -- 30.05 in1017.6 mb - 0.00 in0.0 mm 0.00 in0.0 mm
05:47 AM 60.6°F15.9°C 52.7°F11.5°C 75% Calm Calm -- 30.06 in1017.9 mb - 0.00 in0.0 mm 0.00 in0.0 mm
05:42 AM 60.4°F15.8°C 52.5°F11.4°C 75% Calm Calm -- 30.05 in1017.6 mb - 0.00 in0.0 mm 0.00 in0.0 mm
05:37 AM 60.4°F15.8°C 52.5°F11.4°C 75% Calm Calm -- 30.05 in1017.6 mb - 0.00 in0.0 mm 0.00 in0.0 mm
05:32 AM 60.4°F15.8°C 52.2°F11.2°C 74% Calm Calm -- 30.05 in1017.6 mb - 0.00 in0.0 mm 0.00 in0.0 mm
05:27 AM 60.4°F15.8°C 52.2°F11.2°C 74% Calm Calm -- 30.05 in1017.6 mb - 0.00 in0.0 mm 0.00 in0.0 mm
05:22 AM 60.4°F15.8°C 52.2°F11.2°C 74% Calm Calm -- 30.05 in1017.6 mb - 0.00 in0.0 mm 0.00 in0.0 mm
05:17 AM 60.4°F15.8°C 52.2°F11.2°C 74% Calm Calm -- 30.05 in1017.6 mb - 0.00 in0.0 mm 0.00 in0.0 mm
05:12 AM 60.4°F15.8°C 52.2°F11.2°C 74% Calm Calm -- 30.05 in1017.6 mb - 0.00 in0.0 mm 0.00 in0.0 mm
05:07 AM 60.4°F15.8°C 52.2°F11.2°C 74% Calm Calm -- 30.05 in1017.6 mb - 0.00 in0.0 mm 0.00 in0.0 mm
05:02 AM 60.6°F15.9°C 52.3°F11.3°C 74% Calm Calm -- 30.05 in1017.6 mb - 0.00 in0.0 mm 0.00 in0.0 mm
04:57 AM 60.6°F15.9°C 52.3°F11.3°C 74% Calm Calm -- 30.05 in1017.6 mb - 0.00 in0.0 mm 0.00 in0.0 mm
04:52 AM 60.6°F15.9°C 52.3°F11.3°C 74% Calm Calm -- 30.05 in1017.6 mb - 0.00 in0.0 mm 0.00 in0.0 mm
04:47 AM 60.6°F15.9°C 52.3°F11.3°C 74% Calm Calm -- 30.05 in1017.6 mb - 0.00 in0.0 mm 0.00 in0.0 mm
04:42 AM 60.8°F16.0°C 52.5°F11.4°C 74% Calm Calm -- 30.05 in1017.6 mb - 0.00 in0.0 mm 0.00 in0.0 mm
04:37 AM 60.8°F16.0°C 52.5°F11.4°C 74% Calm Calm -- 30.05 in1017.6 mb - 0.00 in0.0 mm 0.00 in0.0 mm
04:32 AM 61.0°F16.1°C 52.7°F11.5°C 74% Calm Calm -- 30.05 in1017.6 mb - 0.00 in0.0 mm 0.00 in0.0 mm
04:27 AM 61.0°F16.1°C 52.7°F11.5°C 74% Calm Calm -- 30.05 in1017.6 mb - 0.00 in0.0 mm 0.00 in0.0 mm
04:22 AM 61.2°F16.2°C 52.5°F11.4°C 73% Calm Calm -- 30.05 in1017.6 mb - 0.00 in0.0 mm 0.00 in0.0 mm
04:17 AM 61.2°F16.2°C 52.5°F11.4°C 73% Calm Calm -- 30.04 in1017.3 mb - 0.00 in0.0 mm 0.00 in0.0 mm
04:12 AM 61.3°F16.3°C 52.7°F11.5°C 73% Calm Calm -- 30.04 in1017.3 mb - 0.00 in0.0 mm 0.00 in0.0 mm
04:07 AM 61.3°F16.3°C 52.7°F11.5°C 73% Calm Calm -- 30.04 in1017.3 mb - 0.00 in0.0 mm 0.00 in0.0 mm
04:02 AM 61.5°F16.4°C 52.7°F11.5°C 73% Calm Calm -- 30.04 in1017.3 mb - 0.00 in0.0 mm 0.00 in0.0 mm
03:57 AM 61.7°F16.5°C 53.2°F11.8°C 74% Calm Calm -- 30.04 in1017.3 mb - 0.00 in0.0 mm 0.00 in0.0 mm
03:52 AM 61.9°F16.6°C 53.1°F11.7°C 73% Calm Calm -- 30.04 in1017.3 mb - 0.00 in0.0 mm 0.00 in0.0 mm
03:47 AM 61.9°F16.6°C 53.1°F11.7°C 73% Calm Calm -- 30.04 in1017.3 mb - 0.00 in0.0 mm 0.00 in0.0 mm
03:42 AM 62.1°F16.7°C 53.2°F11.8°C 73% Calm Calm -- 30.04 in1017.3 mb - 0.00 in0.0 mm 0.00 in0.0 mm
03:37 AM 62.2°F16.8°C 53.4°F11.9°C 73% Calm Calm -- 30.04 in1017.3 mb - 0.00 in0.0 mm 0.00 in0.0 mm
03:32 AM 62.2°F16.8°C 53.4°F11.9°C 73% Calm Calm -- 30.04 in1017.3 mb - 0.00 in0.0 mm 0.00 in0.0 mm
03:27 AM 62.4°F16.9°C 53.2°F11.8°C 72% Calm Calm -- 30.04 in1017.3 mb - 0.00 in0.0 mm 0.00 in0.0 mm
03:22 AM 62.6°F17.0°C 53.4°F11.9°C 72% Calm Calm -- 30.04 in1017.3 mb - 0.00 in0.0 mm 0.00 in0.0 mm
03:17 AM 62.8°F17.1°C 53.6°F12.0°C 72% Calm Calm -- 30.04 in1017.3 mb - 0.00 in0.0 mm 0.00 in0.0 mm
03:12 AM 63.0°F17.2°C 53.8°F12.1°C 72% Calm Calm -- 30.04 in1017.3 mb - 0.00 in0.0 mm 0.00 in0.0 mm
03:07 AM 63.1°F17.3°C 54.0°F12.2°C 72% Calm Calm -- 30.04 in1017.3 mb - 0.00 in0.0 mm 0.00 in0.0 mm
03:02 AM 63.3°F17.4°C 53.8°F12.1°C 71% Calm Calm -- 30.04 in1017.3 mb - 0.00 in0.0 mm 0.00 in0.0 mm
02:57 AM 63.5°F17.5°C 53.6°F12.0°C 70% Calm Calm -- 30.04 in1017.3 mb - 0.00 in0.0 mm 0.00 in0.0 mm
02:52 AM 63.9°F17.7°C 54.0°F12.2°C 70% Calm Calm -- 30.04 in1017.3 mb - 0.00 in0.0 mm 0.00 in0.0 mm
02:47 AM 64.0°F17.8°C 54.1°F12.3°C 70% Calm Calm -- 30.04 in1017.3 mb - 0.00 in0.0 mm 0.00 in0.0 mm
02:42 AM 64.2°F17.9°C 53.8°F12.1°C 69% Calm Calm -- 30.04 in1017.3 mb - 0.00 in0.0 mm 0.00 in0.0 mm
02:37 AM 64.6°F18.1°C 54.1°F12.3°C 69% Calm Calm -- 30.04 in1017.3 mb - 0.00 in0.0 mm 0.00 in0.0 mm
02:32 AM 64.8°F18.2°C 54.0°F12.2°C 68% Calm Calm -- 30.04 in1017.3 mb - 0.00 in0.0 mm 0.00 in0.0 mm
02:27 AM 64.9°F18.3°C 54.1°F12.3°C 68% Calm Calm -- 30.04 in1017.3 mb - 0.00 in0.0 mm 0.00 in0.0 mm
02:22 AM 65.1°F18.4°C 54.0°F12.2°C 67% Calm Calm -- 30.04 in1017.3 mb - 0.00 in0.0 mm 0.00 in0.0 mm
02:17 AM 65.1°F18.4°C 54.0°F12.2°C 67% 0.9 mph NE1.4 kmh NE -- 30.04 in1017.3 mb - 0.00 in0.0 mm 0.00 in0.0 mm
02:12 AM 65.3°F18.5°C 54.1°F12.3°C 67% 0.9 mph NE1.4 kmh NE -- 30.04 in1017.3 mb - 0.00 in0.0 mm 0.00 in0.0 mm
02:07 AM 65.3°F18.5°C 53.6°F12.0°C 66% Calm Calm 2.0 mph3.2 kmh 30.04 in1017.3 mb - 0.00 in0.0 mm 0.00 in0.0 mm
02:02 AM 65.3°F18.5°C 53.6°F12.0°C 66% Calm Calm -- 30.04 in1017.3 mb - 0.00 in0.0 mm 0.00 in0.0 mm
01:57 AM 65.1°F18.4°C 53.4°F11.9°C 66% Calm Calm -- 30.04 in1017.3 mb - 0.00 in0.0 mm 0.00 in0.0 mm
01:52 AM 65.1°F18.4°C 54.0°F12.2°C 67% Calm Calm -- 30.04 in1017.3 mb - 0.00 in0.0 mm 0.00 in0.0 mm
01:47 AM 65.1°F18.4°C 54.0°F12.2°C 67% Calm Calm -- 30.04 in1017.3 mb - 0.00 in0.0 mm 0.00 in0.0 mm
01:42 AM 64.9°F18.3°C 53.8°F12.1°C 67% Calm Calm -- 30.04 in1017.3 mb - 0.00 in0.0 mm 0.00 in0.0 mm
01:37 AM 64.9°F18.3°C 53.8°F12.1°C 67% Calm Calm -- 30.04 in1017.3 mb - 0.00 in0.0 mm 0.00 in0.0 mm
01:32 AM 64.9°F18.3°C 53.8°F12.1°C 67% Calm Calm -- 30.04 in1017.3 mb - 0.00 in0.0 mm 0.00 in0.0 mm
01:27 AM 65.1°F18.4°C 54.0°F12.2°C 67% Calm Calm -- 30.04 in1017.3 mb - 0.00 in0.0 mm 0.00 in0.0 mm
01:22 AM 64.9°F18.3°C 53.8°F12.1°C 67% Calm Calm -- 30.04 in1017.3 mb - 0.00 in0.0 mm 0.00 in0.0 mm
01:17 AM 64.9°F18.3°C 54.1°F12.3°C 68% Calm Calm -- 30.04 in1017.3 mb - 0.00 in0.0 mm 0.00 in0.0 mm
01:12 AM 64.9°F18.3°C 54.1°F12.3°C 68% 0.9 mph NE1.4 kmh NE -- 30.04 in1017.3 mb - 0.00 in0.0 mm 0.00 in0.0 mm
01:07 AM 64.9°F18.3°C 54.1°F12.3°C 68% 0.9 mph NE1.4 kmh NE -- 30.04 in1017.3 mb - 0.00 in0.0 mm 0.00 in0.0 mm
01:02 AM 64.9°F18.3°C 54.1°F12.3°C 68% Calm Calm 0.9 mph1.4 kmh 30.04 in1017.3 mb - 0.00 in0.0 mm 0.00 in0.0 mm
12:57 AM 64.9°F18.3°C 54.5°F12.5°C 69% Calm Calm -- 30.04 in1017.3 mb - 0.00 in0.0 mm 0.00 in0.0 mm
12:52 AM 65.1°F18.4°C 54.7°F12.6°C 69% Calm Calm -- 30.04 in1017.3 mb - 0.00 in0.0 mm 0.00 in0.0 mm
12:47 AM 65.1°F18.4°C 54.7°F12.6°C 69% Calm Calm -- 30.04 in1017.3 mb - 0.00 in0.0 mm 0.00 in0.0 mm
12:42 AM 65.3°F18.5°C 55.2°F12.9°C 70% Calm Calm 0.9 mph1.4 kmh 30.04 in1017.3 mb - 0.00 in0.0 mm 0.00 in0.0 mm
12:37 AM 65.3°F18.5°C 54.9°F12.7°C 69% Calm Calm -- 30.05 in1017.6 mb - 0.00 in0.0 mm 0.00 in0.0 mm
12:32 AM 65.3°F18.5°C 55.2°F12.9°C 70% Calm Calm 0.9 mph1.4 kmh 30.05 in1017.6 mb - 0.00 in0.0 mm 0.00 in0.0 mm
12:27 AM 65.3°F18.5°C 55.2°F12.9°C 70% Calm Calm 0.9 mph1.4 kmh 30.05 in1017.6 mb - 0.00 in0.0 mm 0.00 in0.0 mm
12:22 AM 65.3°F18.5°C 55.2°F12.9°C 70% Calm Calm -- 30.05 in1017.6 mb - 0.00 in0.0 mm 0.00 in0.0 mm
12:17 AM 65.1°F18.4°C 55.0°F12.8°C 70% Calm Calm -- 30.05 in1017.6 mb - 0.00 in0.0 mm 0.00 in0.0 mm
12:12 AM 65.3°F18.5°C 55.2°F12.9°C 70% Calm Calm -- 30.05 in1017.6 mb - 0.00 in0.0 mm 0.00 in0.0 mm
12:07 AM 65.3°F18.5°C 55.2°F12.9°C 70% Calm Calm -- 30.05 in1017.6 mb - 0.00 in0.0 mm 0.00 in0.0 mm
12:02 AM 65.1°F18.4°C 55.0°F12.8°C 70% Calm Calm -- 30.05 in1017.6 mb - 0.00 in0.0 mm 0.00 in0.0 mm